<?xml version="1.0" encoding="UTF-8"?>
<gpx xmlns="http://www.topografix.com/GPX/1/1" xmlns:xsi="http://www.w3.org/2001/XMLSchema-instance" version="1.1" xsi:schemaLocation="http://www.topografix.com/GPX/1/1 http://www.topografix.com/GPX/1/1/gpx.xsd">
  <metadata>
    <name>Beaverdam Triathlon 2023 - Sprint Aquabike</name>
  </metadata>
  <trk>
    <name>Beaverdam Triathlon 2023 - Sprint Aquabike</name>
    <trkseg>
      <trkpt lat="36.035303" lon="-78.684796">
        <ele>90.806806</ele>
        <time>2023-04-22T08:16:00.000Z</time>
      </trkpt>
      <trkpt lat="36.035391" lon="-78.684997">
        <ele>90.806796</ele>
        <time>2023-04-22T08:16:02.000Z</time>
      </trkpt>
      <trkpt lat="36.035569" lon="-78.684887">
        <ele>90.806805</ele>
        <time>2023-04-22T08:16:04.000Z</time>
      </trkpt>
      <trkpt lat="36.035814" lon="-78.685353">
        <ele>90.806804</ele>
        <time>2023-04-22T08:16:09.000Z</time>
      </trkpt>
      <trkpt lat="36.036051" lon="-78.685634">
        <ele>91.155602</ele>
        <time>2023-04-22T08:16:13.000Z</time>
      </trkpt>
      <trkpt lat="36.036115" lon="-78.685716">
        <ele>91.282761</ele>
        <time>2023-04-22T08:16:14.000Z</time>
      </trkpt>
      <trkpt lat="36.036213" lon="-78.685773">
        <ele>91.430899</ele>
        <time>2023-04-22T08:16:15.000Z</time>
      </trkpt>
      <trkpt lat="36.036346" lon="-78.685817">
        <ele>91.615223</ele>
        <time>2023-04-22T08:16:17.000Z</time>
      </trkpt>
      <trkpt lat="36.036494" lon="-78.685842">
        <ele>91.809778</ele>
        <time>2023-04-22T08:16:19.000Z</time>
      </trkpt>
      <trkpt lat="36.036657" lon="-78.685831">
        <ele>92.028549</ele>
        <time>2023-04-22T08:16:21.000Z</time>
      </trkpt>
      <trkpt lat="36.036878" lon="-78.68572">
        <ele>92.349785</ele>
        <time>2023-04-22T08:16:24.000Z</time>
      </trkpt>
      <trkpt lat="36.037647" lon="-78.685221">
        <ele>93.207473</ele>
        <time>2023-04-22T08:16:34.000Z</time>
      </trkpt>
      <trkpt lat="36.037942" lon="-78.685171">
        <ele>93.196992</ele>
        <time>2023-04-22T08:16:37.000Z</time>
      </trkpt>
      <trkpt lat="36.038185" lon="-78.685236">
        <ele>93.188339</ele>
        <time>2023-04-22T08:16:40.000Z</time>
      </trkpt>
      <trkpt lat="36.038287" lon="-78.685306">
        <ele>93.184274</ele>
        <time>2023-04-22T08:16:41.000Z</time>
      </trkpt>
      <trkpt lat="36.038467" lon="-78.685498">
        <ele>93.176302</ele>
        <time>2023-04-22T08:16:44.000Z</time>
      </trkpt>
      <trkpt lat="36.038517" lon="-78.685635">
        <ele>93.172252</ele>
        <time>2023-04-22T08:16:45.000Z</time>
      </trkpt>
      <trkpt lat="36.038617" lon="-78.686086">
        <ele>93.159129</ele>
        <time>2023-04-22T08:16:49.000Z</time>
      </trkpt>
      <trkpt lat="36.03868" lon="-78.686283">
        <ele>93.153166</ele>
        <time>2023-04-22T08:16:51.000Z</time>
      </trkpt>
      <trkpt lat="36.038854" lon="-78.6866">
        <ele>93.330831</ele>
        <time>2023-04-22T08:16:54.000Z</time>
      </trkpt>
      <trkpt lat="36.039113" lon="-78.686811">
        <ele>93.512175</ele>
        <time>2023-04-22T08:16:57.000Z</time>
      </trkpt>
      <trkpt lat="36.039602" lon="-78.68711">
        <ele>93.843704</ele>
        <time>2023-04-22T08:17:03.000Z</time>
      </trkpt>
      <trkpt lat="36.039955" lon="-78.687377">
        <ele>94.090322</ele>
        <time>2023-04-22T08:17:08.000Z</time>
      </trkpt>
      <trkpt lat="36.040348" lon="-78.687854">
        <ele>94.454271</ele>
        <time>2023-04-22T08:17:14.000Z</time>
      </trkpt>
      <trkpt lat="36.041005" lon="-78.688423">
        <ele>95.029963</ele>
        <time>2023-04-22T08:17:23.000Z</time>
      </trkpt>
      <trkpt lat="36.041329" lon="-78.68877">
        <ele>95.342538</ele>
        <time>2023-04-22T08:17:28.000Z</time>
      </trkpt>
      <trkpt lat="36.041587" lon="-78.68896">
        <ele>95.575566</ele>
        <time>2023-04-22T08:17:31.000Z</time>
      </trkpt>
      <trkpt lat="36.041718" lon="-78.689021">
        <ele>95.790439</ele>
        <time>2023-04-22T08:17:33.000Z</time>
      </trkpt>
      <trkpt lat="36.041973" lon="-78.689112">
        <ele>96.144459</ele>
        <time>2023-04-22T08:17:36.000Z</time>
      </trkpt>
      <trkpt lat="36.042283" lon="-78.689138">
        <ele>96.563613</ele>
        <time>2023-04-22T08:17:39.000Z</time>
      </trkpt>
      <trkpt lat="36.042833" lon="-78.689159">
        <ele>97.310258</ele>
        <time>2023-04-22T08:17:45.000Z</time>
      </trkpt>
      <trkpt lat="36.042953" lon="-78.6892">
        <ele>97.484237</ele>
        <time>2023-04-22T08:17:46.000Z</time>
      </trkpt>
      <trkpt lat="36.043203" lon="-78.689344">
        <ele>97.845901</ele>
        <time>2023-04-22T08:17:49.000Z</time>
      </trkpt>
      <trkpt lat="36.043311" lon="-78.689429">
        <ele>98.030323</ele>
        <time>2023-04-22T08:17:50.000Z</time>
      </trkpt>
      <trkpt lat="36.043506" lon="-78.689683">
        <ele>98.425718</ele>
        <time>2023-04-22T08:17:53.000Z</time>
      </trkpt>
      <trkpt lat="36.043996" lon="-78.690503">
        <ele>99.610347</ele>
        <time>2023-04-22T08:18:02.000Z</time>
      </trkpt>
      <trkpt lat="36.044126" lon="-78.690812">
        <ele>99.994018</ele>
        <time>2023-04-22T08:18:05.000Z</time>
      </trkpt>
      <trkpt lat="36.044169" lon="-78.690989">
        <ele>100.192081</ele>
        <time>2023-04-22T08:18:07.000Z</time>
      </trkpt>
      <trkpt lat="36.044241" lon="-78.691311">
        <ele>100.43641</ele>
        <time>2023-04-22T08:18:10.000Z</time>
      </trkpt>
      <trkpt lat="36.044249" lon="-78.691484">
        <ele>100.262795</ele>
        <time>2023-04-22T08:18:12.000Z</time>
      </trkpt>
      <trkpt lat="36.044227" lon="-78.691673">
        <ele>100.075514</ele>
        <time>2023-04-22T08:18:14.000Z</time>
      </trkpt>
      <trkpt lat="36.044125" lon="-78.691984">
        <ele>99.737274</ele>
        <time>2023-04-22T08:18:17.000Z</time>
      </trkpt>
      <trkpt lat="36.043786" lon="-78.692478">
        <ele>99.107294</ele>
        <time>2023-04-22T08:18:23.000Z</time>
      </trkpt>
      <trkpt lat="36.04365" lon="-78.692641">
        <ele>98.877314</ele>
        <time>2023-04-22T08:18:25.000Z</time>
      </trkpt>
      <trkpt lat="36.043525" lon="-78.692868">
        <ele>98.610045</ele>
        <time>2023-04-22T08:18:27.000Z</time>
      </trkpt>
      <trkpt lat="36.043473" lon="-78.693013">
        <ele>98.436899</ele>
        <time>2023-04-22T08:18:28.000Z</time>
      </trkpt>
      <trkpt lat="36.043398" lon="-78.693355">
        <ele>97.784679</ele>
        <time>2023-04-22T08:18:31.000Z</time>
      </trkpt>
      <trkpt lat="36.04341" lon="-78.694056">
        <ele>96.007768</ele>
        <time>2023-04-22T08:18:37.000Z</time>
      </trkpt>
      <trkpt lat="36.043369" lon="-78.694439">
        <ele>95.044491</ele>
        <time>2023-04-22T08:18:40.000Z</time>
      </trkpt>
      <trkpt lat="36.043317" lon="-78.694677">
        <ele>94.441645</ele>
        <time>2023-04-22T08:18:42.000Z</time>
      </trkpt>
      <trkpt lat="36.043222" lon="-78.694901">
        <ele>93.784449</ele>
        <time>2023-04-22T08:18:44.000Z</time>
      </trkpt>
      <trkpt lat="36.042998" lon="-78.695389">
        <ele>92.494135</ele>
        <time>2023-04-22T08:18:49.000Z</time>
      </trkpt>
      <trkpt lat="36.04246" lon="-78.696214">
        <ele>90.712501</ele>
        <time>2023-04-22T08:18:59.000Z</time>
      </trkpt>
      <trkpt lat="36.042408" lon="-78.696345">
        <ele>90.453443</ele>
        <time>2023-04-22T08:19:00.000Z</time>
      </trkpt>
      <trkpt lat="36.042337" lon="-78.696622">
        <ele>89.971952</ele>
        <time>2023-04-22T08:19:03.000Z</time>
      </trkpt>
      <trkpt lat="36.04231" lon="-78.696914">
        <ele>89.477834</ele>
        <time>2023-04-22T08:19:06.000Z</time>
      </trkpt>
      <trkpt lat="36.042379" lon="-78.698316">
        <ele>89.194573</ele>
        <time>2023-04-22T08:19:19.000Z</time>
      </trkpt>
      <trkpt lat="36.044522" lon="-78.698225">
        <ele>90.206988</ele>
        <time>2023-04-22T08:19:43.000Z</time>
      </trkpt>
      <trkpt lat="36.045418" lon="-78.698169">
        <ele>90.767918</ele>
        <time>2023-04-22T08:19:53.000Z</time>
      </trkpt>
      <trkpt lat="36.04559" lon="-78.698173">
        <ele>90.868916</ele>
        <time>2023-04-22T08:19:55.000Z</time>
      </trkpt>
      <trkpt lat="36.045632" lon="-78.69817">
        <ele>90.893415</ele>
        <time>2023-04-22T08:19:55.000Z</time>
      </trkpt>
      <trkpt lat="36.046855" lon="-78.698104">
        <ele>91.625999</ele>
        <time>2023-04-22T08:20:09.000Z</time>
      </trkpt>
      <trkpt lat="36.046892" lon="-78.698109">
        <ele>91.660439</ele>
        <time>2023-04-22T08:20:09.000Z</time>
      </trkpt>
      <trkpt lat="36.049302" lon="-78.697998">
        <ele>95.470709</ele>
        <time>2023-04-22T08:20:36.000Z</time>
      </trkpt>
      <trkpt lat="36.049679" lon="-78.697971">
        <ele>96.493297</ele>
        <time>2023-04-22T08:20:40.000Z</time>
      </trkpt>
      <trkpt lat="36.049893" lon="-78.697966">
        <ele>97.030876</ele>
        <time>2023-04-22T08:20:42.000Z</time>
      </trkpt>
      <trkpt lat="36.050978" lon="-78.697922">
        <ele>100.5147</ele>
        <time>2023-04-22T08:20:54.000Z</time>
      </trkpt>
      <trkpt lat="36.051243" lon="-78.697896">
        <ele>101.553563</ele>
        <time>2023-04-22T08:20:57.000Z</time>
      </trkpt>
      <trkpt lat="36.051604" lon="-78.697876">
        <ele>102.942652</ele>
        <time>2023-04-22T08:21:01.000Z</time>
      </trkpt>
      <trkpt lat="36.051693" lon="-78.697873">
        <ele>103.231267</ele>
        <time>2023-04-22T08:21:02.000Z</time>
      </trkpt>
      <trkpt lat="36.051925" lon="-78.697863">
        <ele>104.181659</ele>
        <time>2023-04-22T08:21:05.000Z</time>
      </trkpt>
      <trkpt lat="36.051955" lon="-78.697866">
        <ele>104.243255</ele>
        <time>2023-04-22T08:21:05.000Z</time>
      </trkpt>
      <trkpt lat="36.052292" lon="-78.69785">
        <ele>105.547749</ele>
        <time>2023-04-22T08:21:09.000Z</time>
      </trkpt>
      <trkpt lat="36.05238" lon="-78.69784">
        <ele>105.74512</ele>
        <time>2023-04-22T08:21:10.000Z</time>
      </trkpt>
      <trkpt lat="36.052481" lon="-78.69785">
        <ele>106.018374</ele>
        <time>2023-04-22T08:21:11.000Z</time>
      </trkpt>
      <trkpt lat="36.052647" lon="-78.69784">
        <ele>106.423195</ele>
        <time>2023-04-22T08:21:13.000Z</time>
      </trkpt>
      <trkpt lat="36.053199" lon="-78.697811">
        <ele>107.812807</ele>
        <time>2023-04-22T08:21:19.000Z</time>
      </trkpt>
      <trkpt lat="36.05329" lon="-78.697807">
        <ele>108.058343</ele>
        <time>2023-04-22T08:21:20.000Z</time>
      </trkpt>
      <trkpt lat="36.053496" lon="-78.69779">
        <ele>108.562206</ele>
        <time>2023-04-22T08:21:22.000Z</time>
      </trkpt>
      <trkpt lat="36.054017" lon="-78.697758">
        <ele>109.909228</ele>
        <time>2023-04-22T08:21:28.000Z</time>
      </trkpt>
      <trkpt lat="36.054293" lon="-78.697746">
        <ele>110.035641</ele>
        <time>2023-04-22T08:21:31.000Z</time>
      </trkpt>
      <trkpt lat="36.054926" lon="-78.697693">
        <ele>110.048783</ele>
        <time>2023-04-22T08:21:38.000Z</time>
      </trkpt>
      <trkpt lat="36.054973" lon="-78.697685">
        <ele>110.049871</ele>
        <time>2023-04-22T08:21:39.000Z</time>
      </trkpt>
      <trkpt lat="36.055116" lon="-78.697661">
        <ele>110.052919</ele>
        <time>2023-04-22T08:21:41.000Z</time>
      </trkpt>
      <trkpt lat="36.055375" lon="-78.697619">
        <ele>110.058372</ele>
        <time>2023-04-22T08:21:44.000Z</time>
      </trkpt>
      <trkpt lat="36.055407" lon="-78.697621">
        <ele>110.059408</ele>
        <time>2023-04-22T08:21:44.000Z</time>
      </trkpt>
      <trkpt lat="36.055768" lon="-78.697554">
        <ele>110.067121</ele>
        <time>2023-04-22T08:21:48.000Z</time>
      </trkpt>
      <trkpt lat="36.056335" lon="-78.697441">
        <ele>109.704754</ele>
        <time>2023-04-22T08:21:54.000Z</time>
      </trkpt>
      <trkpt lat="36.056468" lon="-78.697413">
        <ele>109.593463</ele>
        <time>2023-04-22T08:21:56.000Z</time>
      </trkpt>
      <trkpt lat="36.056812" lon="-78.697323">
        <ele>109.33049</ele>
        <time>2023-04-22T08:22:00.000Z</time>
      </trkpt>
      <trkpt lat="36.057214" lon="-78.697231">
        <ele>109.013635</ele>
        <time>2023-04-22T08:22:05.000Z</time>
      </trkpt>
      <trkpt lat="36.058062" lon="-78.697015">
        <ele>108.679496</ele>
        <time>2023-04-22T08:22:15.000Z</time>
      </trkpt>
      <trkpt lat="36.058626" lon="-78.696855">
        <ele>108.651166</ele>
        <time>2023-04-22T08:22:21.000Z</time>
      </trkpt>
      <trkpt lat="36.05906" lon="-78.696753">
        <ele>108.630289</ele>
        <time>2023-04-22T08:22:26.000Z</time>
      </trkpt>
      <trkpt lat="36.061969" lon="-78.696022">
        <ele>109.230945</ele>
        <time>2023-04-22T08:22:59.000Z</time>
      </trkpt>
      <trkpt lat="36.062814" lon="-78.695827">
        <ele>109.388902</ele>
        <time>2023-04-22T08:23:09.000Z</time>
      </trkpt>
      <trkpt lat="36.063743" lon="-78.695627">
        <ele>109.519559</ele>
        <time>2023-04-22T08:23:19.000Z</time>
      </trkpt>
      <trkpt lat="36.064467" lon="-78.695465">
        <ele>109.616266</ele>
        <time>2023-04-22T08:23:27.000Z</time>
      </trkpt>
      <trkpt lat="36.066656" lon="-78.694981">
        <ele>109.949432</ele>
        <time>2023-04-22T08:23:52.000Z</time>
      </trkpt>
      <trkpt lat="36.067252" lon="-78.694833">
        <ele>109.919816</ele>
        <time>2023-04-22T08:23:59.000Z</time>
      </trkpt>
      <trkpt lat="36.067829" lon="-78.694716">
        <ele>109.891422</ele>
        <time>2023-04-22T08:24:06.000Z</time>
      </trkpt>
      <trkpt lat="36.070767" lon="-78.694164">
        <ele>107.830137</ele>
        <time>2023-04-22T08:24:39.000Z</time>
      </trkpt>
      <trkpt lat="36.070567" lon="-78.693416">
        <ele>107.109518</ele>
        <time>2023-04-22T08:24:46.000Z</time>
      </trkpt>
      <trkpt lat="36.070276" lon="-78.692481">
        <ele>106.036318</ele>
        <time>2023-04-22T08:24:55.000Z</time>
      </trkpt>
      <trkpt lat="36.069923" lon="-78.691634">
        <ele>104.884297</ele>
        <time>2023-04-22T08:25:04.000Z</time>
      </trkpt>
      <trkpt lat="36.069538" lon="-78.690916">
        <ele>103.8875</ele>
        <time>2023-04-22T08:25:12.000Z</time>
      </trkpt>
      <trkpt lat="36.068109" lon="-78.688577">
        <ele>102.079658</ele>
        <time>2023-04-22T08:25:38.000Z</time>
      </trkpt>
      <trkpt lat="36.067505" lon="-78.687576">
        <ele>101.797072</ele>
        <time>2023-04-22T08:25:49.000Z</time>
      </trkpt>
      <trkpt lat="36.067117" lon="-78.686938">
        <ele>101.754244</ele>
        <time>2023-04-22T08:25:56.000Z</time>
      </trkpt>
      <trkpt lat="36.066786" lon="-78.686412">
        <ele>101.749429</ele>
        <time>2023-04-22T08:26:02.000Z</time>
      </trkpt>
      <trkpt lat="36.065987" lon="-78.685138">
        <ele>100.985079</ele>
        <time>2023-04-22T08:26:16.000Z</time>
      </trkpt>
      <trkpt lat="36.064982" lon="-78.683505">
        <ele>98.539722</ele>
        <time>2023-04-22T08:26:34.000Z</time>
      </trkpt>
      <trkpt lat="36.064162" lon="-78.682513">
        <ele>96.578871</ele>
        <time>2023-04-22T08:26:47.000Z</time>
      </trkpt>
      <trkpt lat="36.06209" lon="-78.680827">
        <ele>92.996286</ele>
        <time>2023-04-22T08:27:15.000Z</time>
      </trkpt>
      <trkpt lat="36.060838" lon="-78.679947">
        <ele>90.26915</ele>
        <time>2023-04-22T08:27:31.000Z</time>
      </trkpt>
      <trkpt lat="36.05835" lon="-78.678058">
        <ele>82.444722</ele>
        <time>2023-04-22T08:28:03.000Z</time>
      </trkpt>
      <trkpt lat="36.056611" lon="-78.676472">
        <ele>77.815938</ele>
        <time>2023-04-22T08:28:27.000Z</time>
      </trkpt>
      <trkpt lat="36.056125" lon="-78.676014">
        <ele>77.340574</ele>
        <time>2023-04-22T08:28:34.000Z</time>
      </trkpt>
      <trkpt lat="36.051887" lon="-78.672072">
        <ele>77.394915</ele>
        <time>2023-04-22T08:29:33.000Z</time>
      </trkpt>
      <trkpt lat="36.051369" lon="-78.671632">
        <ele>77.311782</ele>
        <time>2023-04-22T08:29:40.000Z</time>
      </trkpt>
      <trkpt lat="36.051057" lon="-78.671419">
        <ele>77.265114</ele>
        <time>2023-04-22T08:29:44.000Z</time>
      </trkpt>
      <trkpt lat="36.05035" lon="-78.671025">
        <ele>77.176311</ele>
        <time>2023-04-22T08:29:53.000Z</time>
      </trkpt>
      <trkpt lat="36.049551" lon="-78.670754">
        <ele>77.104592</ele>
        <time>2023-04-22T08:30:02.000Z</time>
      </trkpt>
      <trkpt lat="36.048756" lon="-78.670682">
        <ele>77.09736</ele>
        <time>2023-04-22T08:30:11.000Z</time>
      </trkpt>
      <trkpt lat="36.047659" lon="-78.670669">
        <ele>77.950919</ele>
        <time>2023-04-22T08:30:23.000Z</time>
      </trkpt>
      <trkpt lat="36.043201" lon="-78.670928">
        <ele>82.46154</ele>
        <time>2023-04-22T08:31:13.000Z</time>
      </trkpt>
      <trkpt lat="36.042351" lon="-78.670962">
        <ele>82.635483</ele>
        <time>2023-04-22T08:31:22.000Z</time>
      </trkpt>
      <trkpt lat="36.041904" lon="-78.670947">
        <ele>82.727552</ele>
        <time>2023-04-22T08:31:27.000Z</time>
      </trkpt>
      <trkpt lat="36.041361" lon="-78.670842">
        <ele>83.732171</ele>
        <time>2023-04-22T08:31:33.000Z</time>
      </trkpt>
      <trkpt lat="36.040983" lon="-78.670718">
        <ele>85.042308</ele>
        <time>2023-04-22T08:31:37.000Z</time>
      </trkpt>
      <trkpt lat="36.040418" lon="-78.670422">
        <ele>87.151706</ele>
        <time>2023-04-22T08:31:44.000Z</time>
      </trkpt>
      <trkpt lat="36.039975" lon="-78.670122">
        <ele>88.901335</ele>
        <time>2023-04-22T08:31:50.000Z</time>
      </trkpt>
      <trkpt lat="36.03949" lon="-78.669699">
        <ele>91.550866</ele>
        <time>2023-04-22T08:31:57.000Z</time>
      </trkpt>
      <trkpt lat="36.03913" lon="-78.669275">
        <ele>93.837218</ele>
        <time>2023-04-22T08:32:03.000Z</time>
      </trkpt>
      <trkpt lat="36.038961" lon="-78.669068">
        <ele>94.971257</ele>
        <time>2023-04-22T08:32:06.000Z</time>
      </trkpt>
      <trkpt lat="36.038635" lon="-78.668541">
        <ele>97.292317</ele>
        <time>2023-04-22T08:32:12.000Z</time>
      </trkpt>
      <trkpt lat="36.037874" lon="-78.667258">
        <ele>99.574516</ele>
        <time>2023-04-22T08:32:26.000Z</time>
      </trkpt>
      <trkpt lat="36.037423" lon="-78.666558">
        <ele>100.492781</ele>
        <time>2023-04-22T08:32:34.000Z</time>
      </trkpt>
      <trkpt lat="36.037226" lon="-78.666354">
        <ele>100.588319</ele>
        <time>2023-04-22T08:32:37.000Z</time>
      </trkpt>
      <trkpt lat="36.036386" lon="-78.66587">
        <ele>100.93544</ele>
        <time>2023-04-22T08:32:47.000Z</time>
      </trkpt>
      <trkpt lat="36.036333" lon="-78.665815">
        <ele>100.96104</ele>
        <time>2023-04-22T08:32:48.000Z</time>
      </trkpt>
      <trkpt lat="36.036019" lon="-78.66547">
        <ele>101.301035</ele>
        <time>2023-04-22T08:32:53.000Z</time>
      </trkpt>
      <trkpt lat="36.035467" lon="-78.664631">
        <ele>102.826364</ele>
        <time>2023-04-22T08:33:03.000Z</time>
      </trkpt>
      <trkpt lat="36.035125" lon="-78.664032">
        <ele>103.858914</ele>
        <time>2023-04-22T08:33:10.000Z</time>
      </trkpt>
      <trkpt lat="36.034835" lon="-78.663391">
        <ele>105.312001</ele>
        <time>2023-04-22T08:33:17.000Z</time>
      </trkpt>
      <trkpt lat="36.034413" lon="-78.662303">
        <ele>107.912711</ele>
        <time>2023-04-22T08:33:28.000Z</time>
      </trkpt>
      <trkpt lat="36.034235" lon="-78.661843">
        <ele>109.046404</ele>
        <time>2023-04-22T08:33:33.000Z</time>
      </trkpt>
      <trkpt lat="36.033983" lon="-78.661267">
        <ele>110.293147</ele>
        <time>2023-04-22T08:33:39.000Z</time>
      </trkpt>
      <trkpt lat="36.033773" lon="-78.66089">
        <ele>111.150816</ele>
        <time>2023-04-22T08:33:43.000Z</time>
      </trkpt>
      <trkpt lat="36.033601" lon="-78.660653">
        <ele>111.74851</ele>
        <time>2023-04-22T08:33:46.000Z</time>
      </trkpt>
      <trkpt lat="36.03344" lon="-78.660487">
        <ele>112.254246</ele>
        <time>2023-04-22T08:33:48.000Z</time>
      </trkpt>
      <trkpt lat="36.033108" lon="-78.660188">
        <ele>113.232129</ele>
        <time>2023-04-22T08:33:53.000Z</time>
      </trkpt>
      <trkpt lat="36.03285" lon="-78.660021">
        <ele>113.543038</ele>
        <time>2023-04-22T08:33:56.000Z</time>
      </trkpt>
      <trkpt lat="36.031998" lon="-78.659648">
        <ele>114.469947</ele>
        <time>2023-04-22T08:34:06.000Z</time>
      </trkpt>
      <trkpt lat="36.031951" lon="-78.659635">
        <ele>114.525759</ele>
        <time>2023-04-22T08:34:07.000Z</time>
      </trkpt>
      <trkpt lat="36.031896" lon="-78.659613">
        <ele>114.577434</ele>
        <time>2023-04-22T08:34:08.000Z</time>
      </trkpt>
      <trkpt lat="36.031303" lon="-78.659365">
        <ele>115.26435</ele>
        <time>2023-04-22T08:34:15.000Z</time>
      </trkpt>
      <trkpt lat="36.031006" lon="-78.659205">
        <ele>115.739891</ele>
        <time>2023-04-22T08:34:19.000Z</time>
      </trkpt>
      <trkpt lat="36.03056" lon="-78.65895">
        <ele>116.501578</ele>
        <time>2023-04-22T08:34:24.000Z</time>
      </trkpt>
      <trkpt lat="36.029968" lon="-78.658565">
        <ele>117.47864</ele>
        <time>2023-04-22T08:34:31.000Z</time>
      </trkpt>
      <trkpt lat="36.02987" lon="-78.658475">
        <ele>117.677467</ele>
        <time>2023-04-22T08:34:32.000Z</time>
      </trkpt>
      <trkpt lat="36.029648" lon="-78.658191">
        <ele>118.180467</ele>
        <time>2023-04-22T08:34:36.000Z</time>
      </trkpt>
      <trkpt lat="36.029482" lon="-78.657849">
        <ele>118.704282</ele>
        <time>2023-04-22T08:34:40.000Z</time>
      </trkpt>
      <trkpt lat="36.029355" lon="-78.657477">
        <ele>119.22819</ele>
        <time>2023-04-22T08:34:44.000Z</time>
      </trkpt>
      <trkpt lat="36.029113" lon="-78.656743">
        <ele>120.261369</ele>
        <time>2023-04-22T08:34:51.000Z</time>
      </trkpt>
      <trkpt lat="36.029023" lon="-78.656478">
        <ele>120.624529</ele>
        <time>2023-04-22T08:34:54.000Z</time>
      </trkpt>
      <trkpt lat="36.028974" lon="-78.656142">
        <ele>120.847125</ele>
        <time>2023-04-22T08:34:57.000Z</time>
      </trkpt>
      <trkpt lat="36.028861" lon="-78.655849">
        <ele>121.013983</ele>
        <time>2023-04-22T08:35:00.000Z</time>
      </trkpt>
      <trkpt lat="36.028675" lon="-78.655561">
        <ele>121.199669</ele>
        <time>2023-04-22T08:35:03.000Z</time>
      </trkpt>
      <trkpt lat="36.028459" lon="-78.655369">
        <ele>121.359369</ele>
        <time>2023-04-22T08:35:06.000Z</time>
      </trkpt>
      <trkpt lat="36.027659" lon="-78.654757">
        <ele>121.879411</ele>
        <time>2023-04-22T08:35:16.000Z</time>
      </trkpt>
      <trkpt lat="36.027387" lon="-78.654357">
        <ele>122.022656</ele>
        <time>2023-04-22T08:35:21.000Z</time>
      </trkpt>
      <trkpt lat="36.027267" lon="-78.654067">
        <ele>122.110773</ele>
        <time>2023-04-22T08:35:24.000Z</time>
      </trkpt>
      <trkpt lat="36.027033" lon="-78.653064">
        <ele>122.401402</ele>
        <time>2023-04-22T08:35:33.000Z</time>
      </trkpt>
      <trkpt lat="36.026863" lon="-78.652133">
        <ele>122.377611</ele>
        <time>2023-04-22T08:35:42.000Z</time>
      </trkpt>
      <trkpt lat="36.027037" lon="-78.653071">
        <ele>122.324252</ele>
        <time>2023-04-22T08:35:51.000Z</time>
      </trkpt>
      <trkpt lat="36.027285" lon="-78.654078">
        <ele>122.108299</ele>
        <time>2023-04-22T08:36:00.000Z</time>
      </trkpt>
      <trkpt lat="36.027397" lon="-78.654349">
        <ele>122.014137</ele>
        <time>2023-04-22T08:36:03.000Z</time>
      </trkpt>
      <trkpt lat="36.027655" lon="-78.654761">
        <ele>121.86113</ele>
        <time>2023-04-22T08:36:08.000Z</time>
      </trkpt>
      <trkpt lat="36.028452" lon="-78.655376">
        <ele>121.381918</ele>
        <time>2023-04-22T08:36:18.000Z</time>
      </trkpt>
      <trkpt lat="36.028661" lon="-78.65556">
        <ele>121.182839</ele>
        <time>2023-04-22T08:36:21.000Z</time>
      </trkpt>
      <trkpt lat="36.028857" lon="-78.655842">
        <ele>120.951358</ele>
        <time>2023-04-22T08:36:24.000Z</time>
      </trkpt>
      <trkpt lat="36.028981" lon="-78.656145">
        <ele>120.743341</ele>
        <time>2023-04-22T08:36:27.000Z</time>
      </trkpt>
      <trkpt lat="36.029031" lon="-78.656487">
        <ele>120.527531</ele>
        <time>2023-04-22T08:36:30.000Z</time>
      </trkpt>
      <trkpt lat="36.029109" lon="-78.656742">
        <ele>120.355023</ele>
        <time>2023-04-22T08:36:32.000Z</time>
      </trkpt>
      <trkpt lat="36.029353" lon="-78.657486">
        <ele>119.321813</ele>
        <time>2023-04-22T08:36:39.000Z</time>
      </trkpt>
      <trkpt lat="36.029495" lon="-78.657845">
        <ele>118.736819</ele>
        <time>2023-04-22T08:36:43.000Z</time>
      </trkpt>
      <trkpt lat="36.029656" lon="-78.658185">
        <ele>118.151923</ele>
        <time>2023-04-22T08:36:47.000Z</time>
      </trkpt>
      <trkpt lat="36.029869" lon="-78.658486">
        <ele>117.579436</ele>
        <time>2023-04-22T08:36:51.000Z</time>
      </trkpt>
      <trkpt lat="36.029975" lon="-78.65857">
        <ele>117.339878</ele>
        <time>2023-04-22T08:36:52.000Z</time>
      </trkpt>
      <trkpt lat="36.030544" lon="-78.658946">
        <ele>116.431963</ele>
        <time>2023-04-22T08:36:59.000Z</time>
      </trkpt>
      <trkpt lat="36.031007" lon="-78.659216">
        <ele>115.801387</ele>
        <time>2023-04-22T08:37:05.000Z</time>
      </trkpt>
      <trkpt lat="36.031302" lon="-78.659362">
        <ele>115.407705</ele>
        <time>2023-04-22T08:37:09.000Z</time>
      </trkpt>
      <trkpt lat="36.031898" lon="-78.659619">
        <ele>114.633426</ele>
        <time>2023-04-22T08:37:16.000Z</time>
      </trkpt>
      <trkpt lat="36.031943" lon="-78.659625">
        <ele>114.570646</ele>
        <time>2023-04-22T08:37:17.000Z</time>
      </trkpt>
      <trkpt lat="36.031996" lon="-78.65966">
        <ele>114.502818</ele>
        <time>2023-04-22T08:37:18.000Z</time>
      </trkpt>
      <trkpt lat="36.032857" lon="-78.66002">
        <ele>113.376477</ele>
        <time>2023-04-22T08:37:28.000Z</time>
      </trkpt>
      <trkpt lat="36.033096" lon="-78.660191">
        <ele>113.027712</ele>
        <time>2023-04-22T08:37:31.000Z</time>
      </trkpt>
      <trkpt lat="36.033429" lon="-78.660496">
        <ele>112.455251</ele>
        <time>2023-04-22T08:37:36.000Z</time>
      </trkpt>
      <trkpt lat="36.033611" lon="-78.660654">
        <ele>111.901488</ele>
        <time>2023-04-22T08:37:38.000Z</time>
      </trkpt>
      <trkpt lat="36.03378" lon="-78.660887">
        <ele>111.246997</ele>
        <time>2023-04-22T08:37:41.000Z</time>
      </trkpt>
      <trkpt lat="36.033988" lon="-78.661253">
        <ele>110.307865</ele>
        <time>2023-04-22T08:37:45.000Z</time>
      </trkpt>
      <trkpt lat="36.034229" lon="-78.661834">
        <ele>108.942711</ele>
        <time>2023-04-22T08:37:51.000Z</time>
      </trkpt>
      <trkpt lat="36.03441" lon="-78.662316">
        <ele>107.85808</ele>
        <time>2023-04-22T08:37:56.000Z</time>
      </trkpt>
      <trkpt lat="36.034822" lon="-78.663375">
        <ele>105.387081</ele>
        <time>2023-04-22T08:38:07.000Z</time>
      </trkpt>
      <trkpt lat="36.035126" lon="-78.664044">
        <ele>103.83015</ele>
        <time>2023-04-22T08:38:14.000Z</time>
      </trkpt>
      <trkpt lat="36.035475" lon="-78.664631">
        <ele>102.762369</ele>
        <time>2023-04-22T08:38:21.000Z</time>
      </trkpt>
      <trkpt lat="36.036036" lon="-78.66547">
        <ele>101.513402</ele>
        <time>2023-04-22T08:38:31.000Z</time>
      </trkpt>
      <trkpt lat="36.036342" lon="-78.665822">
        <ele>100.917067</ele>
        <time>2023-04-22T08:38:36.000Z</time>
      </trkpt>
      <trkpt lat="36.036388" lon="-78.665878">
        <ele>100.819878</ele>
        <time>2023-04-22T08:38:37.000Z</time>
      </trkpt>
      <trkpt lat="36.037234" lon="-78.666344">
        <ele>100.437728</ele>
        <time>2023-04-22T08:38:47.000Z</time>
      </trkpt>
      <trkpt lat="36.037417" lon="-78.666569">
        <ele>100.343564</ele>
        <time>2023-04-22T08:38:50.000Z</time>
      </trkpt>
      <trkpt lat="36.037882" lon="-78.667268">
        <ele>99.930443</ele>
        <time>2023-04-22T08:38:58.000Z</time>
      </trkpt>
      <trkpt lat="36.038643" lon="-78.668556">
        <ele>96.858247</ele>
        <time>2023-04-22T08:39:12.000Z</time>
      </trkpt>
      <trkpt lat="36.038961" lon="-78.669059">
        <ele>95.3507</ele>
        <time>2023-04-22T08:39:18.000Z</time>
      </trkpt>
      <trkpt lat="36.03913" lon="-78.669289">
        <ele>94.136509</ele>
        <time>2023-04-22T08:39:21.000Z</time>
      </trkpt>
      <trkpt lat="36.039496" lon="-78.669708">
        <ele>91.688611</ele>
        <time>2023-04-22T08:39:27.000Z</time>
      </trkpt>
      <trkpt lat="36.03997" lon="-78.670117">
        <ele>88.851853</ele>
        <time>2023-04-22T08:39:33.000Z</time>
      </trkpt>
      <trkpt lat="36.040423" lon="-78.670412">
        <ele>86.618632</ele>
        <time>2023-04-22T08:39:39.000Z</time>
      </trkpt>
      <trkpt lat="36.040998" lon="-78.670712">
        <ele>85.117445</ele>
        <time>2023-04-22T08:39:46.000Z</time>
      </trkpt>
      <trkpt lat="36.041358" lon="-78.670841">
        <ele>84.185041</ele>
        <time>2023-04-22T08:39:50.000Z</time>
      </trkpt>
      <trkpt lat="36.041907" lon="-78.670954">
        <ele>82.859584</ele>
        <time>2023-04-22T08:39:56.000Z</time>
      </trkpt>
      <trkpt lat="36.042346" lon="-78.670974">
        <ele>82.486629</ele>
        <time>2023-04-22T08:40:01.000Z</time>
      </trkpt>
      <trkpt lat="36.043201" lon="-78.670933">
        <ele>82.286519</ele>
        <time>2023-04-22T08:40:11.000Z</time>
      </trkpt>
      <trkpt lat="36.047676" lon="-78.670671">
        <ele>77.891324</ele>
        <time>2023-04-22T08:41:01.000Z</time>
      </trkpt>
      <trkpt lat="36.048748" lon="-78.67068">
        <ele>77.237327</ele>
        <time>2023-04-22T08:41:13.000Z</time>
      </trkpt>
      <trkpt lat="36.049549" lon="-78.67077">
        <ele>77.022187</ele>
        <time>2023-04-22T08:41:22.000Z</time>
      </trkpt>
      <trkpt lat="36.050355" lon="-78.671029">
        <ele>77.177902</ele>
        <time>2023-04-22T08:41:31.000Z</time>
      </trkpt>
      <trkpt lat="36.051055" lon="-78.671409">
        <ele>77.301439</ele>
        <time>2023-04-22T08:41:40.000Z</time>
      </trkpt>
      <trkpt lat="36.05136" lon="-78.67163">
        <ele>77.324026</ele>
        <time>2023-04-22T08:41:44.000Z</time>
      </trkpt>
      <trkpt lat="36.051884" lon="-78.672072">
        <ele>77.364248</ele>
        <time>2023-04-22T08:41:51.000Z</time>
      </trkpt>
      <trkpt lat="36.05613" lon="-78.676016">
        <ele>77.478385</ele>
        <time>2023-04-22T08:42:50.000Z</time>
      </trkpt>
      <trkpt lat="36.056623" lon="-78.676475">
        <ele>77.794393</ele>
        <time>2023-04-22T08:42:57.000Z</time>
      </trkpt>
      <trkpt lat="36.05836" lon="-78.678061">
        <ele>82.37789</ele>
        <time>2023-04-22T08:43:21.000Z</time>
      </trkpt>
      <trkpt lat="36.060838" lon="-78.679945">
        <ele>90.151277</ele>
        <time>2023-04-22T08:43:53.000Z</time>
      </trkpt>
      <trkpt lat="36.062086" lon="-78.680837">
        <ele>92.966957</ele>
        <time>2023-04-22T08:44:09.000Z</time>
      </trkpt>
      <trkpt lat="36.064147" lon="-78.68252">
        <ele>96.561154</ele>
        <time>2023-04-22T08:44:36.000Z</time>
      </trkpt>
      <trkpt lat="36.064982" lon="-78.683509">
        <ele>98.530787</ele>
        <time>2023-04-22T08:44:49.000Z</time>
      </trkpt>
      <trkpt lat="36.065989" lon="-78.68514">
        <ele>100.889865</ele>
        <time>2023-04-22T08:45:07.000Z</time>
      </trkpt>
      <trkpt lat="36.066779" lon="-78.686405">
        <ele>101.872782</ele>
        <time>2023-04-22T08:45:21.000Z</time>
      </trkpt>
      <trkpt lat="36.067122" lon="-78.686945">
        <ele>101.805784</ele>
        <time>2023-04-22T08:45:27.000Z</time>
      </trkpt>
      <trkpt lat="36.067507" lon="-78.68756">
        <ele>101.726398</ele>
        <time>2023-04-22T08:45:34.000Z</time>
      </trkpt>
      <trkpt lat="36.068097" lon="-78.688574">
        <ele>102.065477</ele>
        <time>2023-04-22T08:45:45.000Z</time>
      </trkpt>
      <trkpt lat="36.069542" lon="-78.690919">
        <ele>103.981869</ele>
        <time>2023-04-22T08:46:12.000Z</time>
      </trkpt>
      <trkpt lat="36.069912" lon="-78.691631">
        <ele>104.823957</ele>
        <time>2023-04-22T08:46:20.000Z</time>
      </trkpt>
      <trkpt lat="36.070268" lon="-78.69248">
        <ele>106.005791</ele>
        <time>2023-04-22T08:46:29.000Z</time>
      </trkpt>
      <trkpt lat="36.070565" lon="-78.693428">
        <ele>107.241689</ele>
        <time>2023-04-22T08:46:38.000Z</time>
      </trkpt>
      <trkpt lat="36.070757" lon="-78.694163">
        <ele>107.851945</ele>
        <time>2023-04-22T08:46:45.000Z</time>
      </trkpt>
      <trkpt lat="36.067837" lon="-78.694716">
        <ele>110.007029</ele>
        <time>2023-04-22T08:47:18.000Z</time>
      </trkpt>
      <trkpt lat="36.067258" lon="-78.694841">
        <ele>109.969462</ele>
        <time>2023-04-22T08:47:25.000Z</time>
      </trkpt>
      <trkpt lat="36.06666" lon="-78.694979">
        <ele>109.930274</ele>
        <time>2023-04-22T08:47:32.000Z</time>
      </trkpt>
      <trkpt lat="36.064476" lon="-78.695462">
        <ele>109.613675</ele>
        <time>2023-04-22T08:47:57.000Z</time>
      </trkpt>
      <trkpt lat="36.063739" lon="-78.695635">
        <ele>109.513727</ele>
        <time>2023-04-22T08:48:05.000Z</time>
      </trkpt>
      <trkpt lat="36.06281" lon="-78.695836">
        <ele>109.395531</ele>
        <time>2023-04-22T08:48:15.000Z</time>
      </trkpt>
      <trkpt lat="36.061975" lon="-78.696016">
        <ele>109.237751</ele>
        <time>2023-04-22T08:48:24.000Z</time>
      </trkpt>
      <trkpt lat="36.059053" lon="-78.696752">
        <ele>108.565729</ele>
        <time>2023-04-22T08:48:57.000Z</time>
      </trkpt>
      <trkpt lat="36.05862" lon="-78.696867">
        <ele>108.62575</ele>
        <time>2023-04-22T08:49:02.000Z</time>
      </trkpt>
      <trkpt lat="36.058052" lon="-78.697013">
        <ele>108.737779</ele>
        <time>2023-04-22T08:49:08.000Z</time>
      </trkpt>
      <trkpt lat="36.057221" lon="-78.697229">
        <ele>108.91309</ele>
        <time>2023-04-22T08:49:17.000Z</time>
      </trkpt>
      <trkpt lat="36.056814" lon="-78.697319">
        <ele>109.251088</ele>
        <time>2023-04-22T08:49:22.000Z</time>
      </trkpt>
      <trkpt lat="36.056467" lon="-78.697403">
        <ele>109.531614</ele>
        <time>2023-04-22T08:49:26.000Z</time>
      </trkpt>
      <trkpt lat="36.056325" lon="-78.697439">
        <ele>109.650318</ele>
        <time>2023-04-22T08:49:28.000Z</time>
      </trkpt>
      <trkpt lat="36.055776" lon="-78.697562">
        <ele>110.103285</ele>
        <time>2023-04-22T08:49:34.000Z</time>
      </trkpt>
      <trkpt lat="36.055424" lon="-78.697611">
        <ele>110.328042</ele>
        <time>2023-04-22T08:49:38.000Z</time>
      </trkpt>
      <trkpt lat="36.055376" lon="-78.69762">
        <ele>110.302953</ele>
        <time>2023-04-22T08:49:39.000Z</time>
      </trkpt>
      <trkpt lat="36.055104" lon="-78.697663">
        <ele>110.1696</ele>
        <time>2023-04-22T08:49:42.000Z</time>
      </trkpt>
      <trkpt lat="36.054978" lon="-78.697682">
        <ele>110.09516</ele>
        <time>2023-04-22T08:49:43.000Z</time>
      </trkpt>
      <trkpt lat="36.054912" lon="-78.69768">
        <ele>110.068608</ele>
        <time>2023-04-22T08:49:44.000Z</time>
      </trkpt>
      <trkpt lat="36.054307" lon="-78.697737">
        <ele>109.74752</ele>
        <time>2023-04-22T08:49:51.000Z</time>
      </trkpt>
      <trkpt lat="36.054016" lon="-78.697766">
        <ele>109.601249</ele>
        <time>2023-04-22T08:49:54.000Z</time>
      </trkpt>
      <trkpt lat="36.053481" lon="-78.697785">
        <ele>108.853155</ele>
        <time>2023-04-22T08:50:00.000Z</time>
      </trkpt>
      <trkpt lat="36.053284" lon="-78.697805">
        <ele>108.254784</ele>
        <time>2023-04-22T08:50:02.000Z</time>
      </trkpt>
      <trkpt lat="36.053185" lon="-78.697811">
        <ele>107.963218</ele>
        <time>2023-04-22T08:50:03.000Z</time>
      </trkpt>
      <trkpt lat="36.052651" lon="-78.697835">
        <ele>106.313009</ele>
        <time>2023-04-22T08:50:09.000Z</time>
      </trkpt>
      <trkpt lat="36.052484" lon="-78.69784">
        <ele>105.832274</ele>
        <time>2023-04-22T08:50:11.000Z</time>
      </trkpt>
      <trkpt lat="36.052372" lon="-78.69785">
        <ele>105.507783</ele>
        <time>2023-04-22T08:50:12.000Z</time>
      </trkpt>
      <trkpt lat="36.05229" lon="-78.69785">
        <ele>105.273414</ele>
        <time>2023-04-22T08:50:13.000Z</time>
      </trkpt>
      <trkpt lat="36.051947" lon="-78.697863">
        <ele>104.227635</ele>
        <time>2023-04-22T08:50:17.000Z</time>
      </trkpt>
      <trkpt lat="36.05193" lon="-78.697862">
        <ele>104.179512</ele>
        <time>2023-04-22T08:50:17.000Z</time>
      </trkpt>
      <trkpt lat="36.05169" lon="-78.697886">
        <ele>103.282057</ele>
        <time>2023-04-22T08:50:20.000Z</time>
      </trkpt>
      <trkpt lat="36.051606" lon="-78.697885">
        <ele>102.996802</ele>
        <time>2023-04-22T08:50:21.000Z</time>
      </trkpt>
      <trkpt lat="36.051253" lon="-78.697899">
        <ele>101.623962</ele>
        <time>2023-04-22T08:50:25.000Z</time>
      </trkpt>
      <trkpt lat="36.050976" lon="-78.697911">
        <ele>100.597252</ele>
        <time>2023-04-22T08:50:28.000Z</time>
      </trkpt>
      <trkpt lat="36.049891" lon="-78.697972">
        <ele>96.770747</ele>
        <time>2023-04-22T08:50:40.000Z</time>
      </trkpt>
      <trkpt lat="36.049678" lon="-78.697981">
        <ele>96.328849</ele>
        <time>2023-04-22T08:50:42.000Z</time>
      </trkpt>
      <trkpt lat="36.04929" lon="-78.697989">
        <ele>95.488248</ele>
        <time>2023-04-22T08:50:46.000Z</time>
      </trkpt>
      <trkpt lat="36.046897" lon="-78.698101">
        <ele>91.748593</ele>
        <time>2023-04-22T08:51:13.000Z</time>
      </trkpt>
      <trkpt lat="36.046845" lon="-78.698111">
        <ele>91.703041</ele>
        <time>2023-04-22T08:51:14.000Z</time>
      </trkpt>
      <trkpt lat="36.045624" lon="-78.698166">
        <ele>90.861823</ele>
        <time>2023-04-22T08:51:28.000Z</time>
      </trkpt>
      <trkpt lat="36.045577" lon="-78.698163">
        <ele>90.841084</ele>
        <time>2023-04-22T08:51:29.000Z</time>
      </trkpt>
      <trkpt lat="36.045412" lon="-78.698186">
        <ele>90.755595</ele>
        <time>2023-04-22T08:51:31.000Z</time>
      </trkpt>
      <trkpt lat="36.044523" lon="-78.698219">
        <ele>90.267627</ele>
        <time>2023-04-22T08:51:41.000Z</time>
      </trkpt>
      <trkpt lat="36.042373" lon="-78.698322">
        <ele>89.208232</ele>
        <time>2023-04-22T08:52:05.000Z</time>
      </trkpt>
      <trkpt lat="36.042308" lon="-78.696926">
        <ele>89.342466</ele>
        <time>2023-04-22T08:52:18.000Z</time>
      </trkpt>
      <trkpt lat="36.042326" lon="-78.696633">
        <ele>89.587959</ele>
        <time>2023-04-22T08:52:21.000Z</time>
      </trkpt>
      <trkpt lat="36.042404" lon="-78.696349">
        <ele>90.181505</ele>
        <time>2023-04-22T08:52:24.000Z</time>
      </trkpt>
      <trkpt lat="36.042462" lon="-78.696229">
        <ele>90.500843</ele>
        <time>2023-04-22T08:52:25.000Z</time>
      </trkpt>
      <trkpt lat="36.042991" lon="-78.695392">
        <ele>92.697173</ele>
        <time>2023-04-22T08:52:35.000Z</time>
      </trkpt>
      <trkpt lat="36.043214" lon="-78.694907">
        <ele>93.858191</ele>
        <time>2023-04-22T08:52:40.000Z</time>
      </trkpt>
      <trkpt lat="36.043301" lon="-78.694659">
        <ele>94.447778</ele>
        <time>2023-04-22T08:52:42.000Z</time>
      </trkpt>
      <trkpt lat="36.043362" lon="-78.69444">
        <ele>95.000798</ele>
        <time>2023-04-22T08:52:44.000Z</time>
      </trkpt>
      <trkpt lat="36.043403" lon="-78.694067">
        <ele>95.88447</ele>
        <time>2023-04-22T08:52:47.000Z</time>
      </trkpt>
      <trkpt lat="36.043396" lon="-78.693357">
        <ele>97.514539</ele>
        <time>2023-04-22T08:52:53.000Z</time>
      </trkpt>
      <trkpt lat="36.043393" lon="-78.693059">
        <ele>98.205114</ele>
        <time>2023-04-22T08:52:56.000Z</time>
      </trkpt>
      <trkpt lat="36.04342" lon="-78.692905">
        <ele>98.569933</ele>
        <time>2023-04-22T08:52:57.000Z</time>
      </trkpt>
      <trkpt lat="36.043554" lon="-78.692591">
        <ele>99.159635</ele>
        <time>2023-04-22T08:53:00.000Z</time>
      </trkpt>
      <trkpt lat="36.043701" lon="-78.692386">
        <ele>99.289582</ele>
        <time>2023-04-22T08:53:02.000Z</time>
      </trkpt>
      <trkpt lat="36.043995" lon="-78.691993">
        <ele>99.559811</ele>
        <time>2023-04-22T08:53:07.000Z</time>
      </trkpt>
      <trkpt lat="36.044088" lon="-78.691818">
        <ele>99.657617</ele>
        <time>2023-04-22T08:53:09.000Z</time>
      </trkpt>
      <trkpt lat="36.044158" lon="-78.691551">
        <ele>99.800535</ele>
        <time>2023-04-22T08:53:12.000Z</time>
      </trkpt>
      <trkpt lat="36.044192" lon="-78.691303">
        <ele>99.923183</ele>
        <time>2023-04-22T08:53:14.000Z</time>
      </trkpt>
      <trkpt lat="36.044173" lon="-78.690973">
        <ele>100.085361</ele>
        <time>2023-04-22T08:53:17.000Z</time>
      </trkpt>
      <trkpt lat="36.044114" lon="-78.690815">
        <ele>100.171266</ele>
        <time>2023-04-22T08:53:19.000Z</time>
      </trkpt>
      <trkpt lat="36.04401" lon="-78.690508">
        <ele>99.839098</ele>
        <time>2023-04-22T08:53:22.000Z</time>
      </trkpt>
      <trkpt lat="36.043503" lon="-78.68968">
        <ele>98.453917</ele>
        <time>2023-04-22T08:53:31.000Z</time>
      </trkpt>
      <trkpt lat="36.043307" lon="-78.68943">
        <ele>97.991587</ele>
        <time>2023-04-22T08:53:34.000Z</time>
      </trkpt>
      <trkpt lat="36.043205" lon="-78.689341">
        <ele>97.770786</ele>
        <time>2023-04-22T08:53:35.000Z</time>
      </trkpt>
      <trkpt lat="36.042956" lon="-78.68921">
        <ele>97.331941</ele>
        <time>2023-04-22T08:53:38.000Z</time>
      </trkpt>
      <trkpt lat="36.042833" lon="-78.689167">
        <ele>97.15701</ele>
        <time>2023-04-22T08:53:39.000Z</time>
      </trkpt>
      <trkpt lat="36.042281" lon="-78.689151">
        <ele>96.549102</ele>
        <time>2023-04-22T08:53:45.000Z</time>
      </trkpt>
      <trkpt lat="36.041976" lon="-78.689103">
        <ele>96.207856</ele>
        <time>2023-04-22T08:53:48.000Z</time>
      </trkpt>
      <trkpt lat="36.041733" lon="-78.689019">
        <ele>95.919628</ele>
        <time>2023-04-22T08:53:51.000Z</time>
      </trkpt>
      <trkpt lat="36.041588" lon="-78.688959">
        <ele>95.744676</ele>
        <time>2023-04-22T08:53:53.000Z</time>
      </trkpt>
      <trkpt lat="36.041332" lon="-78.688765">
        <ele>95.430169</ele>
        <time>2023-04-22T08:53:56.000Z</time>
      </trkpt>
      <trkpt lat="36.041012" lon="-78.688414">
        <ele>95.037131</ele>
        <time>2023-04-22T08:54:01.000Z</time>
      </trkpt>
      <trkpt lat="36.040355" lon="-78.687859">
        <ele>94.42456</ele>
        <time>2023-04-22T08:54:10.000Z</time>
      </trkpt>
      <trkpt lat="36.039956" lon="-78.687383">
        <ele>94.008383</ele>
        <time>2023-04-22T08:54:16.000Z</time>
      </trkpt>
      <trkpt lat="36.03961" lon="-78.687108">
        <ele>93.777899</ele>
        <time>2023-04-22T08:54:21.000Z</time>
      </trkpt>
      <trkpt lat="36.039104" lon="-78.686807">
        <ele>93.563877</ele>
        <time>2023-04-22T08:54:27.000Z</time>
      </trkpt>
      <trkpt lat="36.038853" lon="-78.686601">
        <ele>93.446817</ele>
        <time>2023-04-22T08:54:30.000Z</time>
      </trkpt>
      <trkpt lat="36.038663" lon="-78.686283">
        <ele>93.327538</ele>
        <time>2023-04-22T08:54:34.000Z</time>
      </trkpt>
      <trkpt lat="36.038607" lon="-78.686081">
        <ele>93.261415</ele>
        <time>2023-04-22T08:54:36.000Z</time>
      </trkpt>
      <trkpt lat="36.038519" lon="-78.685635">
        <ele>93.15897</ele>
        <time>2023-04-22T08:54:40.000Z</time>
      </trkpt>
      <trkpt lat="36.038457" lon="-78.685501">
        <ele>93.14778</ele>
        <time>2023-04-22T08:54:41.000Z</time>
      </trkpt>
      <trkpt lat="36.038291" lon="-78.685308">
        <ele>93.125681</ele>
        <time>2023-04-22T08:54:44.000Z</time>
      </trkpt>
      <trkpt lat="36.038182" lon="-78.685236">
        <ele>93.114425</ele>
        <time>2023-04-22T08:54:45.000Z</time>
      </trkpt>
      <trkpt lat="36.03794" lon="-78.685175">
        <ele>93.090472</ele>
        <time>2023-04-22T08:54:48.000Z</time>
      </trkpt>
      <trkpt lat="36.03765" lon="-78.685225">
        <ele>93.061415</ele>
        <time>2023-04-22T08:54:51.000Z</time>
      </trkpt>
      <trkpt lat="36.036873" lon="-78.685727">
        <ele>92.9935291591</ele>
        <time>2023-04-22T08:55:01.000Z</time>
      </trkpt>
      <trkpt lat="36.036661" lon="-78.685828">
        <ele>92.9759361788</ele>
        <time>2023-04-22T08:55:04.000Z</time>
      </trkpt>
      <trkpt lat="36.036489" lon="-78.685846">
        <ele>92.9625692417</ele>
        <time>2023-04-22T08:55:06.000Z</time>
      </trkpt>
      <trkpt lat="36.036346" lon="-78.68582">
        <ele>92.9513765656</ele>
        <time>2023-04-22T08:55:08.000Z</time>
      </trkpt>
      <trkpt lat="36.036222" lon="-78.68577">
        <ele>92.9412766943</ele>
        <time>2023-04-22T08:55:09.000Z</time>
      </trkpt>
      <trkpt lat="36.036124" lon="-78.685705">
        <ele>92.932665133</ele>
        <time>2023-04-22T08:55:10.000Z</time>
      </trkpt>
      <trkpt lat="36.036042" lon="-78.685641">
        <ele>92.9251562804</ele>
        <time>2023-04-22T08:55:11.000Z</time>
      </trkpt>
      <trkpt lat="36.035817" lon="-78.685355">
        <ele>92.9001697985</ele>
        <time>2023-04-22T08:55:15.000Z</time>
      </trkpt>
      <trkpt lat="36.035563" lon="-78.684884">
        <ele>92.8647186547</ele>
        <time>2023-04-22T08:55:20.000Z</time>
      </trkpt>
    </trkseg>
  </trk>
</gpx>

<!--
Performance optimized by W3 Total Cache. Learn more: https://www.boldgrid.com/w3-total-cache/?utm_source=w3tc&utm_medium=footer_comment&utm_campaign=free_plugin

Page Caching using Disk: Enhanced{w3tc_pagecache_reject_reason} 

Served from: www.aquabike.world @ 2026-05-10 23:57:09 by W3 Total Cache
-->